sensor_id;sensor_type;location;lat;lon;timestamp;temperature;humidity
240;DHT22;104;53.590;10.004;2023-04-15T06:12:29;7.20;96.80
240;DHT22;104;53.590;10.004;2023-04-15T08:28:36;7.80;96.80
240;DHT22;104;53.590;10.004;2023-04-15T08:38:27;8.00;96.80
240;DHT22;104;53.590;10.004;2023-04-15T08:43:26;8.00;96.80
240;DHT22;104;53.590;10.004;2023-04-15T08:45:53;8.00;96.80
240;DHT22;104;53.590;10.004;2023-04-15T08:48:21;8.20;96.80
240;DHT22;104;53.590;10.004;2023-04-15T08:50:50;8.50;96.80
240;DHT22;104;53.590;10.004;2023-04-15T08:53:17;8.50;96.80
240;DHT22;104;53.590;10.004;2023-04-15T08:55:47;8.60;96.80
240;DHT22;104;53.590;10.004;2023-04-15T08:58:18;8.70;96.80
240;DHT22;104;53.590;10.004;2023-04-15T09:00:45;8.60;96.80
240;DHT22;104;53.590;10.004;2023-04-15T09:03:13;8.50;96.80
240;DHT22;104;53.590;10.004;2023-04-15T09:05:42;8.50;96.80
240;DHT22;104;53.590;10.004;2023-04-15T09:15:37;8.30;96.80
240;DHT22;104;53.590;10.004;2023-04-15T09:18:04;8.40;96.80
240;DHT22;104;53.590;10.004;2023-04-15T09:20:38;8.60;96.80
240;DHT22;104;53.590;10.004;2023-04-15T09:23:11;8.50;96.80
240;DHT22;104;53.590;10.004;2023-04-15T09:30:42;8.40;96.80
240;DHT22;104;53.590;10.004;2023-04-15T09:33:13;8.30;96.80
240;DHT22;104;53.590;10.004;2023-04-15T09:38:09;8.30;96.80
240;DHT22;104;53.590;10.004;2023-04-15T09:40:37;8.30;96.80
240;DHT22;104;53.590;10.004;2023-04-15T09:43:05;8.30;96.80
240;DHT22;104;53.590;10.004;2023-04-15T09:45:35;8.40;96.80
240;DHT22;104;53.590;10.004;2023-04-15T09:48:15;8.40;96.80
240;DHT22;104;53.590;10.004;2023-04-15T09:50:43;8.60;96.80
240;DHT22;104;53.590;10.004;2023-04-15T09:53:11;8.90;96.80
240;DHT22;104;53.590;10.004;2023-04-15T09:55:43;8.70;96.80
240;DHT22;104;53.590;10.004;2023-04-15T09:58:17;8.70;96.80
240;DHT22;104;53.590;10.004;2023-04-15T10:00:46;8.50;96.80
240;DHT22;104;53.590;10.004;2023-04-15T10:05:42;8.90;96.80
240;DHT22;104;53.590;10.004;2023-04-15T10:08:09;8.90;96.80
240;DHT22;104;53.590;10.004;2023-04-15T10:10:36;8.90;96.80
240;DHT22;104;53.590;10.004;2023-04-15T10:13:04;8.60;96.80
240;DHT22;104;53.590;10.004;2023-04-15T10:15:31;8.60;96.80
240;DHT22;104;53.590;10.004;2023-04-15T10:18:02;8.50;96.80
240;DHT22;104;53.590;10.004;2023-04-15T10:22:58;8.50;96.80
240;DHT22;104;53.590;10.004;2023-04-15T10:25:26;8.70;96.80
240;DHT22;104;53.590;10.004;2023-04-15T10:27:54;8.60;96.80
240;DHT22;104;53.590;10.004;2023-04-15T10:30:22;8.70;96.80
240;DHT22;104;53.590;10.004;2023-04-15T10:32:49;8.90;96.80
240;DHT22;104;53.590;10.004;2023-04-15T10:35:19;9.10;96.80
240;DHT22;104;53.590;10.004;2023-04-15T10:37:47;9.20;96.80
240;DHT22;104;53.590;10.004;2023-04-15T10:40:26;9.40;96.80
240;DHT22;104;53.590;10.004;2023-04-15T10:42:54;9.50;96.10
240;DHT22;104;53.590;10.004;2023-04-15T10:45:21;9.60;95.40
240;DHT22;104;53.590;10.004;2023-04-15T10:47:53;9.70;95.80
240;DHT22;104;53.590;10.004;2023-04-15T10:50:24;10.20;95.30
240;DHT22;104;53.590;10.004;2023-04-15T10:55:22;10.50;91.30
240;DHT22;104;53.590;10.004;2023-04-15T10:57:51;10.60;91.10
240;DHT22;104;53.590;10.004;2023-04-15T11:00:23;10.80;91.40
240;DHT22;104;53.590;10.004;2023-04-15T11:02:53;10.80;91.20
240;DHT22;104;53.590;10.004;2023-04-15T11:05:23;10.60;89.00
240;DHT22;104;53.590;10.004;2023-04-15T11:08:10;10.60;87.90
240;DHT22;104;53.590;10.004;2023-04-15T11:10:52;10.40;88.60
240;DHT22;104;53.590;10.004;2023-04-15T11:13:28;10.40;88.80
240;DHT22;104;53.590;10.004;2023-04-15T11:16:01;10.60;88.60
240;DHT22;104;53.590;10.004;2023-04-15T11:18:30;10.40;89.30
240;DHT22;104;53.590;10.004;2023-04-15T11:21:03;10.30;89.70
240;DHT22;104;53.590;10.004;2023-04-15T11:23:33;10.30;89.20
240;DHT22;104;53.590;10.004;2023-04-15T11:26:02;10.30;89.50
240;DHT22;104;53.590;10.004;2023-04-15T11:28:31;10.10;89.90
240;DHT22;104;53.590;10.004;2023-04-15T11:31:05;10.10;90.40
240;DHT22;104;53.590;10.004;2023-04-15T11:43:24;10.70;89.00
240;DHT22;104;53.590;10.004;2023-04-15T11:45:52;10.60;88.50
240;DHT22;104;53.590;10.004;2023-04-15T11:48:22;11.00;88.20
240;DHT22;104;53.590;10.004;2023-04-15T11:50:53;11.00;88.10
240;DHT22;104;53.590;10.004;2023-04-15T11:53:23;11.20;86.80
240;DHT22;104;53.590;10.004;2023-04-15T11:55:52;11.20;86.70
240;DHT22;104;53.590;10.004;2023-04-15T11:58:20;11.20;86.80
240;DHT22;104;53.590;10.004;2023-04-15T12:00:49;10.80;86.50
240;DHT22;104;53.590;10.004;2023-04-15T12:03:21;10.30;88.50
240;DHT22;104;53.590;10.004;2023-04-15T12:06:13;10.20;89.30
240;DHT22;104;53.590;10.004;2023-04-15T12:09:09;10.30;89.40
240;DHT22;104;53.590;10.004;2023-04-15T12:14:08;10.00;89.60
240;DHT22;104;53.590;10.004;2023-04-15T12:16:38;10.00;90.30
240;DHT22;104;53.590;10.004;2023-04-15T12:19:08;10.00;90.60
240;DHT22;104;53.590;10.004;2023-04-15T12:21:37;9.70;91.20
240;DHT22;104;53.590;10.004;2023-04-15T12:24:06;9.70;91.90
240;DHT22;104;53.590;10.004;2023-04-15T12:26:36;9.70;92.40
240;DHT22;104;53.590;10.004;2023-04-15T12:29:05;9.80;91.90
240;DHT22;104;53.590;10.004;2023-04-15T12:31:33;9.90;91.00
240;DHT22;104;53.590;10.004;2023-04-15T12:34:01;10.00;90.80
240;DHT22;104;53.590;10.004;2023-04-15T12:36:29;10.00;90.70
240;DHT22;104;53.590;10.004;2023-04-15T12:39:01;10.00;90.70
240;DHT22;104;53.590;10.004;2023-04-15T12:41:29;9.90;90.70
240;DHT22;104;53.590;10.004;2023-04-15T12:43:58;10.00;90.20
240;DHT22;104;53.590;10.004;2023-04-15T12:46:25;10.00;90.90
240;DHT22;104;53.590;10.004;2023-04-15T12:48:58;10.00;90.60
240;DHT22;104;53.590;10.004;2023-04-15T12:53:57;10.00;90.90
240;DHT22;104;53.590;10.004;2023-04-15T12:56:24;10.00;91.10
240;DHT22;104;53.590;10.004;2023-04-15T12:58:51;10.00;91.00
240;DHT22;104;53.590;10.004;2023-04-15T13:01:20;10.10;91.30
240;DHT22;104;53.590;10.004;2023-04-15T13:03:47;9.90;91.50
240;DHT22;104;53.590;10.004;2023-04-15T13:06:15;9.60;92.10
240;DHT22;104;53.590;10.004;2023-04-15T13:08:42;9.50;92.60
240;DHT22;104;53.590;10.004;2023-04-15T13:13:36;9.50;93.20
240;DHT22;104;53.590;10.004;2023-04-15T13:16:04;9.10;94.10
240;DHT22;104;53.590;10.004;2023-04-15T13:18:33;9.00;95.00
240;DHT22;104;53.590;10.004;2023-04-15T13:21:00;8.90;95.60
240;DHT22;104;53.590;10.004;2023-04-15T13:33:17;9.40;95.30
240;DHT22;104;53.590;10.004;2023-04-15T13:40:40;9.60;94.10
240;DHT22;104;53.590;10.004;2023-04-15T13:43:07;9.50;94.70
240;DHT22;104;53.590;10.004;2023-04-15T13:45:34;9.10;96.80
240;DHT22;104;53.590;10.004;2023-04-15T13:48:03;9.20;96.80
240;DHT22;104;53.590;10.004;2023-04-15T13:52:58;9.30;96.80
240;DHT22;104;53.590;10.004;2023-04-15T13:55:25;9.50;96.80
240;DHT22;104;53.590;10.004;2023-04-15T13:57:52;9.60;96.80
240;DHT22;104;53.590;10.004;2023-04-15T15:04:56;9.90;96.00
240;DHT22;104;53.590;10.004;2023-04-15T22:11:17;8.90;96.80
